sensor_id;sensor_type;location;lat;lon;timestamp;P1;durP1;ratioP1;P2;durP2;ratioP2
73359;SDS011;63092;43.582;19.528;2023-01-29T00:01:51;26.38;;;13.73;;
73359;SDS011;63092;43.582;19.528;2023-01-29T00:04:17;24.17;;;12.07;;
73359;SDS011;63092;43.582;19.528;2023-01-29T00:06:43;21.27;;;10.77;;
73359;SDS011;63092;43.582;19.528;2023-01-29T00:09:10;21.30;;;11.40;;
73359;SDS011;63092;43.582;19.528;2023-01-29T00:11:37;21.05;;;11.52;;
73359;SDS011;63092;43.582;19.528;2023-01-29T00:14:04;23.88;;;12.65;;
73359;SDS011;63092;43.582;19.528;2023-01-29T00:16:30;27.85;;;13.35;;
73359;SDS011;63092;43.582;19.528;2023-01-29T00:18:55;26.23;;;13.00;;
73359;SDS011;63092;43.582;19.528;2023-01-29T00:21:21;23.02;;;12.30;;
73359;SDS011;63092;43.582;19.528;2023-01-29T00:23:47;27.90;;;14.68;;
73359;SDS011;63092;43.582;19.528;2023-01-29T00:26:14;28.00;;;14.40;;
73359;SDS011;63092;43.582;19.528;2023-01-29T00:28:41;24.35;;;14.10;;
73359;SDS011;63092;43.582;19.528;2023-01-29T00:31:08;23.45;;;11.73;;
73359;SDS011;63092;43.582;19.528;2023-01-29T00:33:41;22.05;;;10.23;;
73359;SDS011;63092;43.582;19.528;2023-01-29T00:36:07;21.55;;;11.05;;
73359;SDS011;63092;43.582;19.528;2023-01-29T00:38:34;21.00;;;10.98;;
73359;SDS011;63092;43.582;19.528;2023-01-29T00:41:11;21.60;;;11.50;;
73359;SDS011;63092;43.582;19.528;2023-01-29T00:43:57;20.90;;;10.73;;
73359;SDS011;63092;43.582;19.528;2023-01-29T00:46:41;21.90;;;11.05;;
73359;SDS011;63092;43.582;19.528;2023-01-29T00:49:08;19.92;;;10.48;;
73359;SDS011;63092;43.582;19.528;2023-01-29T00:51:34;19.33;;;9.02;;
73359;SDS011;63092;43.582;19.528;2023-01-29T00:54:00;19.55;;;10.25;;
73359;SDS011;63092;43.582;19.528;2023-01-29T00:56:26;38.33;;;16.05;;
73359;SDS011;63092;43.582;19.528;2023-01-29T00:58:53;25.20;;;12.93;;
73359;SDS011;63092;43.582;19.528;2023-01-29T01:01:19;22.52;;;10.95;;
73359;SDS011;63092;43.582;19.528;2023-01-29T01:04:06;18.27;;;9.90;;
73359;SDS011;63092;43.582;19.528;2023-01-29T01:06:35;20.23;;;10.05;;
73359;SDS011;63092;43.582;19.528;2023-01-29T01:09:01;15.63;;;8.68;;
73359;SDS011;63092;43.582;19.528;2023-01-29T01:11:46;23.13;;;12.27;;
73359;SDS011;63092;43.582;19.528;2023-01-29T01:14:11;21.75;;;10.77;;
73359;SDS011;63092;43.582;19.528;2023-01-29T01:16:37;20.52;;;10.50;;
73359;SDS011;63092;43.582;19.528;2023-01-29T01:19:03;20.38;;;10.88;;
73359;SDS011;63092;43.582;19.528;2023-01-29T01:21:29;17.52;;;8.88;;
73359;SDS011;63092;43.582;19.528;2023-01-29T01:23:54;16.50;;;8.13;;
73359;SDS011;63092;43.582;19.528;2023-01-29T01:26:20;18.30;;;8.63;;
73359;SDS011;63092;43.582;19.528;2023-01-29T01:28:46;15.27;;;7.78;;
73359;SDS011;63092;43.582;19.528;2023-01-29T01:31:12;14.63;;;6.97;;
73359;SDS011;63092;43.582;19.528;2023-01-29T01:33:38;16.23;;;7.95;;
73359;SDS011;63092;43.582;19.528;2023-01-29T01:36:05;15.10;;;7.60;;
73359;SDS011;63092;43.582;19.528;2023-01-29T01:38:35;14.43;;;6.80;;
73359;SDS011;63092;43.582;19.528;2023-01-29T01:41:08;14.50;;;7.45;;
73359;SDS011;63092;43.582;19.528;2023-01-29T01:43:51;14.48;;;7.72;;
73359;SDS011;63092;43.582;19.528;2023-01-29T01:46:28;17.58;;;8.57;;
73359;SDS011;63092;43.582;19.528;2023-01-29T01:49:00;20.38;;;9.52;;
73359;SDS011;63092;43.582;19.528;2023-01-29T01:51:29;20.45;;;9.13;;
73359;SDS011;63092;43.582;19.528;2023-01-29T01:54:02;19.95;;;9.27;;
73359;SDS011;63092;43.582;19.528;2023-01-29T01:56:40;17.83;;;8.68;;
73359;SDS011;63092;43.582;19.528;2023-01-29T01:59:09;17.63;;;8.75;;
73359;SDS011;63092;43.582;19.528;2023-01-29T02:01:38;16.83;;;8.25;;
73359;SDS011;63092;43.582;19.528;2023-01-29T02:04:08;17.90;;;8.60;;
73359;SDS011;63092;43.582;19.528;2023-01-29T02:06:57;19.13;;;9.10;;
73359;SDS011;63092;43.582;19.528;2023-01-29T02:09:52;18.95;;;9.05;;
73359;SDS011;63092;43.582;19.528;2023-01-29T02:12:25;16.38;;;7.93;;
73359;SDS011;63092;43.582;19.528;2023-01-29T02:17:20;18.92;;;8.40;;
73359;SDS011;63092;43.582;19.528;2023-01-29T02:19:49;19.70;;;8.82;;
73359;SDS011;63092;43.582;19.528;2023-01-29T02:41:36;18.02;;;9.02;;
73359;SDS011;63092;43.582;19.528;2023-01-29T02:44:23;19.58;;;8.48;;
73359;SDS011;63092;43.582;19.528;2023-01-29T02:47:20;21.30;;;9.68;;
73359;SDS011;63092;43.582;19.528;2023-01-29T02:49:50;19.70;;;8.38;;
73359;SDS011;63092;43.582;19.528;2023-01-29T02:54:53;19.27;;;9.15;;
73359;SDS011;63092;43.582;19.528;2023-01-29T02:57:41;21.92;;;9.63;;
73359;SDS011;63092;43.582;19.528;2023-01-29T03:00:17;20.98;;;8.48;;
73359;SDS011;63092;43.582;19.528;2023-01-29T03:03:02;17.23;;;9.10;;
73359;SDS011;63092;43.582;19.528;2023-01-29T03:08:24;14.88;;;6.78;;
73359;SDS011;63092;43.582;19.528;2023-01-29T03:11:02;16.45;;;7.28;;
73359;SDS011;63092;43.582;19.528;2023-01-29T03:13:35;15.15;;;7.25;;
73359;SDS011;63092;43.582;19.528;2023-01-29T03:18:54;16.95;;;6.53;;
73359;SDS011;63092;43.582;19.528;2023-01-29T03:21:30;12.77;;;6.07;;
73359;SDS011;63092;43.582;19.528;2023-01-29T03:24:41;13.68;;;6.80;;
73359;SDS011;63092;43.582;19.528;2023-01-29T03:27:38;13.23;;;6.60;;
73359;SDS011;63092;43.582;19.528;2023-01-29T03:30:31;13.50;;;6.63;;
73359;SDS011;63092;43.582;19.528;2023-01-29T03:33:18;19.40;;;8.27;;
73359;SDS011;63092;43.582;19.528;2023-01-29T03:35:52;14.43;;;6.97;;
73359;SDS011;63092;43.582;19.528;2023-01-29T03:38:24;14.98;;;7.03;;
73359;SDS011;63092;43.582;19.528;2023-01-29T03:40:59;14.43;;;7.30;;
73359;SDS011;63092;43.582;19.528;2023-01-29T03:46:47;16.10;;;7.60;;
73359;SDS011;63092;43.582;19.528;2023-01-29T03:52:14;13.88;;;6.65;;
73359;SDS011;63092;43.582;19.528;2023-01-29T04:05:39;23.10;;;8.65;;
73359;SDS011;63092;43.582;19.528;2023-01-29T04:08:26;20.02;;;9.80;;
73359;SDS011;63092;43.582;19.528;2023-01-29T04:10:55;16.33;;;8.10;;
73359;SDS011;63092;43.582;19.528;2023-01-29T04:13:24;16.73;;;7.55;;
73359;SDS011;63092;43.582;19.528;2023-01-29T04:15:55;15.40;;;7.38;;
73359;SDS011;63092;43.582;19.528;2023-01-29T04:18:23;19.13;;;7.75;;
73359;SDS011;63092;43.582;19.528;2023-01-29T04:20:49;15.82;;;7.40;;
73359;SDS011;63092;43.582;19.528;2023-01-29T04:23:22;16.52;;;7.78;;
73359;SDS011;63092;43.582;19.528;2023-01-29T04:26:00;16.90;;;8.15;;
73359;SDS011;63092;43.582;19.528;2023-01-29T04:28:50;17.88;;;8.50;;
73359;SDS011;63092;43.582;19.528;2023-01-29T04:31:25;15.90;;;7.25;;
73359;SDS011;63092;43.582;19.528;2023-01-29T04:34:06;17.48;;;7.60;;
73359;SDS011;63092;43.582;19.528;2023-01-29T04:39:51;21.90;;;8.70;;
73359;SDS011;63092;43.582;19.528;2023-01-29T04:50:45;15.48;;;7.72;;
73359;SDS011;63092;43.582;19.528;2023-01-29T04:58:44;15.57;;;7.43;;
73359;SDS011;63092;43.582;19.528;2023-01-29T05:01:16;18.75;;;8.32;;
73359;SDS011;63092;43.582;19.528;2023-01-29T05:03:45;18.27;;;7.50;;
73359;SDS011;63092;43.582;19.528;2023-01-29T05:06:14;17.05;;;7.97;;
73359;SDS011;63092;43.582;19.528;2023-01-29T05:08:42;17.60;;;9.40;;
73359;SDS011;63092;43.582;19.528;2023-01-29T05:11:08;17.40;;;9.02;;
73359;SDS011;63092;43.582;19.528;2023-01-29T05:13:35;17.67;;;8.63;;
73359;SDS011;63092;43.582;19.528;2023-01-29T05:16:09;20.90;;;10.40;;
73359;SDS011;63092;43.582;19.528;2023-01-29T05:18:44;20.95;;;9.60;;
73359;SDS011;63092;43.582;19.528;2023-01-29T05:21:10;18.50;;;9.27;;
73359;SDS011;63092;43.582;19.528;2023-01-29T05:23:36;20.63;;;10.32;;
73359;SDS011;63092;43.582;19.528;2023-01-29T05:26:02;24.60;;;10.70;;
73359;SDS011;63092;43.582;19.528;2023-01-29T05:28:28;20.33;;;9.88;;
73359;SDS011;63092;43.582;19.528;2023-01-29T05:30:55;19.52;;;8.88;;
73359;SDS011;63092;43.582;19.528;2023-01-29T05:33:25;21.05;;;10.50;;
73359;SDS011;63092;43.582;19.528;2023-01-29T05:35:52;20.70;;;9.95;;
73359;SDS011;63092;43.582;19.528;2023-01-29T05:38:19;21.42;;;10.65;;
73359;SDS011;63092;43.582;19.528;2023-01-29T05:40:45;27.20;;;12.18;;
73359;SDS011;63092;43.582;19.528;2023-01-29T05:45:40;22.20;;;10.02;;
73359;SDS011;63092;43.582;19.528;2023-01-29T05:48:06;22.75;;;10.30;;
73359;SDS011;63092;43.582;19.528;2023-01-29T05:50:31;17.85;;;9.55;;
73359;SDS011;63092;43.582;19.528;2023-01-29T05:52:57;19.85;;;10.05;;
73359;SDS011;63092;43.582;19.528;2023-01-29T05:55:25;21.10;;;10.52;;
73359;SDS011;63092;43.582;19.528;2023-01-29T05:57:53;22.60;;;11.52;;
73359;SDS011;63092;43.582;19.528;2023-01-29T06:00:19;24.20;;;11.45;;
73359;SDS011;63092;43.582;19.528;2023-01-29T06:02:45;22.48;;;10.57;;
73359;SDS011;63092;43.582;19.528;2023-01-29T06:05:11;26.52;;;12.68;;
73359;SDS011;63092;43.582;19.528;2023-01-29T06:07:37;28.48;;;13.98;;
73359;SDS011;63092;43.582;19.528;2023-01-29T06:10:04;33.17;;;15.82;;
73359;SDS011;63092;43.582;19.528;2023-01-29T06:12:30;27.98;;;14.02;;
73359;SDS011;63092;43.582;19.528;2023-01-29T06:14:56;31.23;;;13.95;;
73359;SDS011;63092;43.582;19.528;2023-01-29T06:17:21;27.02;;;12.88;;
73359;SDS011;63092;43.582;19.528;2023-01-29T06:19:47;24.02;;;12.25;;
73359;SDS011;63092;43.582;19.528;2023-01-29T06:22:13;24.15;;;11.48;;
73359;SDS011;63092;43.582;19.528;2023-01-29T06:24:38;31.58;;;13.63;;
73359;SDS011;63092;43.582;19.528;2023-01-29T06:27:04;25.15;;;12.40;;
73359;SDS011;63092;43.582;19.528;2023-01-29T06:29:29;24.73;;;12.27;;
73359;SDS011;63092;43.582;19.528;2023-01-29T06:31:55;23.35;;;10.88;;
73359;SDS011;63092;43.582;19.528;2023-01-29T06:34:21;20.75;;;10.63;;
73359;SDS011;63092;43.582;19.528;2023-01-29T06:36:46;23.92;;;11.40;;
73359;SDS011;63092;43.582;19.528;2023-01-29T06:39:12;26.67;;;13.85;;
73359;SDS011;63092;43.582;19.528;2023-01-29T06:41:38;22.88;;;12.82;;
73359;SDS011;63092;43.582;19.528;2023-01-29T06:44:04;28.17;;;14.57;;
73359;SDS011;63092;43.582;19.528;2023-01-29T06:46:29;24.70;;;12.35;;
73359;SDS011;63092;43.582;19.528;2023-01-29T06:48:58;30.83;;;13.80;;
73359;SDS011;63092;43.582;19.528;2023-01-29T06:51:24;24.40;;;12.98;;
73359;SDS011;63092;43.582;19.528;2023-01-29T06:53:50;24.25;;;12.70;;
73359;SDS011;63092;43.582;19.528;2023-01-29T06:56:18;24.98;;;12.02;;
73359;SDS011;63092;43.582;19.528;2023-01-29T06:58:44;25.27;;;12.25;;
73359;SDS011;63092;43.582;19.528;2023-01-29T07:01:10;29.08;;;12.98;;
73359;SDS011;63092;43.582;19.528;2023-01-29T07:03:36;25.48;;;13.73;;
73359;SDS011;63092;43.582;19.528;2023-01-29T07:06:02;30.35;;;14.48;;
73359;SDS011;63092;43.582;19.528;2023-01-29T07:08:28;28.63;;;14.82;;
73359;SDS011;63092;43.582;19.528;2023-01-29T07:10:58;34.22;;;15.98;;
73359;SDS011;63092;43.582;19.528;2023-01-29T07:13:24;31.20;;;14.45;;
73359;SDS011;63092;43.582;19.528;2023-01-29T07:15:50;37.28;;;17.95;;
73359;SDS011;63092;43.582;19.528;2023-01-29T07:18:16;26.40;;;13.25;;
73359;SDS011;63092;43.582;19.528;2023-01-29T07:20:41;27.23;;;12.15;;
73359;SDS011;63092;43.582;19.528;2023-01-29T07:23:08;22.80;;;9.50;;
73359;SDS011;63092;43.582;19.528;2023-01-29T07:25:36;34.10;;;16.15;;
73359;SDS011;63092;43.582;19.528;2023-01-29T07:28:04;31.27;;;15.32;;
73359;SDS011;63092;43.582;19.528;2023-01-29T07:30:30;29.02;;;14.23;;
73359;SDS011;63092;43.582;19.528;2023-01-29T07:32:59;41.10;;;22.08;;
73359;SDS011;63092;43.582;19.528;2023-01-29T07:35:26;34.90;;;16.65;;
73359;SDS011;63092;43.582;19.528;2023-01-29T07:37:52;25.88;;;13.35;;
73359;SDS011;63092;43.582;19.528;2023-01-29T07:40:18;28.25;;;13.63;;
73359;SDS011;63092;43.582;19.528;2023-01-29T07:42:43;28.90;;;13.80;;
73359;SDS011;63092;43.582;19.528;2023-01-29T07:45:09;46.25;;;24.10;;
73359;SDS011;63092;43.582;19.528;2023-01-29T07:47:35;76.97;;;41.60;;
73359;SDS011;63092;43.582;19.528;2023-01-29T07:50:02;44.53;;;22.73;;
73359;SDS011;63092;43.582;19.528;2023-01-29T07:52:29;48.60;;;24.77;;
73359;SDS011;63092;43.582;19.528;2023-01-29T07:54:55;48.20;;;24.08;;
73359;SDS011;63092;43.582;19.528;2023-01-29T07:57:21;46.35;;;24.77;;
73359;SDS011;63092;43.582;19.528;2023-01-29T07:59:47;40.13;;;21.30;;
73359;SDS011;63092;43.582;19.528;2023-01-29T08:02:13;42.88;;;22.98;;
73359;SDS011;63092;43.582;19.528;2023-01-29T08:04:38;169.85;;;82.72;;
73359;SDS011;63092;43.582;19.528;2023-01-29T08:07:04;67.05;;;34.20;;
73359;SDS011;63092;43.582;19.528;2023-01-29T08:09:30;74.30;;;33.55;;
73359;SDS011;63092;43.582;19.528;2023-01-29T08:11:56;46.85;;;22.70;;
73359;SDS011;63092;43.582;19.528;2023-01-29T08:14:22;38.85;;;22.73;;
73359;SDS011;63092;43.582;19.528;2023-01-29T08:16:48;35.08;;;19.25;;
73359;SDS011;63092;43.582;19.528;2023-01-29T08:19:14;42.28;;;23.35;;
73359;SDS011;63092;43.582;19.528;2023-01-29T08:21:40;48.85;;;27.30;;
73359;SDS011;63092;43.582;19.528;2023-01-29T08:24:06;36.17;;;17.77;;
73359;SDS011;63092;43.582;19.528;2023-01-29T08:26:32;34.65;;;15.75;;
73359;SDS011;63092;43.582;19.528;2023-01-29T08:28:58;35.97;;;17.63;;
73359;SDS011;63092;43.582;19.528;2023-01-29T08:31:23;35.05;;;19.17;;
73359;SDS011;63092;43.582;19.528;2023-01-29T08:33:49;32.20;;;15.95;;
73359;SDS011;63092;43.582;19.528;2023-01-29T08:36:15;35.72;;;19.33;;
73359;SDS011;63092;43.582;19.528;2023-01-29T08:38:41;99.05;;;41.78;;
73359;SDS011;63092;43.582;19.528;2023-01-29T08:41:07;57.08;;;28.88;;
73359;SDS011;63092;43.582;19.528;2023-01-29T08:43:35;69.80;;;32.53;;
73359;SDS011;63092;43.582;19.528;2023-01-29T08:46:02;62.92;;;31.75;;
73359;SDS011;63092;43.582;19.528;2023-01-29T08:48:29;79.25;;;37.50;;
73359;SDS011;63092;43.582;19.528;2023-01-29T08:50:58;60.35;;;32.80;;
73359;SDS011;63092;43.582;19.528;2023-01-29T08:53:26;49.85;;;27.40;;
73359;SDS011;63092;43.582;19.528;2023-01-29T08:55:54;52.60;;;28.58;;
73359;SDS011;63092;43.582;19.528;2023-01-29T08:58:20;73.05;;;35.35;;
73359;SDS011;63092;43.582;19.528;2023-01-29T09:00:47;64.53;;;31.98;;
73359;SDS011;63092;43.582;19.528;2023-01-29T09:03:13;67.43;;;33.90;;
73359;SDS011;63092;43.582;19.528;2023-01-29T09:05:39;44.42;;;24.40;;
73359;SDS011;63092;43.582;19.528;2023-01-29T09:08:06;42.95;;;22.67;;
73359;SDS011;63092;43.582;19.528;2023-01-29T09:10:34;48.78;;;23.35;;
73359;SDS011;63092;43.582;19.528;2023-01-29T09:13:00;51.03;;;25.88;;
73359;SDS011;63092;43.582;19.528;2023-01-29T09:15:25;44.70;;;22.65;;
73359;SDS011;63092;43.582;19.528;2023-01-29T09:17:51;40.33;;;20.63;;
73359;SDS011;63092;43.582;19.528;2023-01-29T09:20:17;36.40;;;17.75;;
73359;SDS011;63092;43.582;19.528;2023-01-29T09:22:43;35.97;;;19.70;;
73359;SDS011;63092;43.582;19.528;2023-01-29T09:25:10;38.35;;;20.27;;
73359;SDS011;63092;43.582;19.528;2023-01-29T09:27:36;35.50;;;17.67;;
73359;SDS011;63092;43.582;19.528;2023-01-29T09:30:02;50.28;;;26.35;;
73359;SDS011;63092;43.582;19.528;2023-01-29T09:32:29;46.90;;;25.52;;
73359;SDS011;63092;43.582;19.528;2023-01-29T09:34:55;44.30;;;24.95;;
73359;SDS011;63092;43.582;19.528;2023-01-29T09:37:21;37.85;;;20.05;;
73359;SDS011;63092;43.582;19.528;2023-01-29T09:39:47;41.65;;;22.83;;
73359;SDS011;63092;43.582;19.528;2023-01-29T09:42:27;52.20;;;25.35;;
73359;SDS011;63092;43.582;19.528;2023-01-29T09:47:31;39.75;;;19.77;;
73359;SDS011;63092;43.582;19.528;2023-01-29T09:50:00;38.70;;;20.60;;
73359;SDS011;63092;43.582;19.528;2023-01-29T09:52:35;59.53;;;28.45;;
73359;SDS011;63092;43.582;19.528;2023-01-29T09:55:13;47.58;;;24.45;;
73359;SDS011;63092;43.582;19.528;2023-01-29T10:00:24;42.10;;;23.05;;
73359;SDS011;63092;43.582;19.528;2023-01-29T10:06:14;36.38;;;20.13;;
73359;SDS011;63092;43.582;19.528;2023-01-29T10:14:38;39.85;;;18.92;;
73359;SDS011;63092;43.582;19.528;2023-01-29T10:20:02;28.23;;;13.63;;
73359;SDS011;63092;43.582;19.528;2023-01-29T10:23:00;32.72;;;16.98;;
73359;SDS011;63092;43.582;19.528;2023-01-29T10:25:41;45.13;;;21.50;;
73359;SDS011;63092;43.582;19.528;2023-01-29T10:28:29;36.47;;;18.53;;
73359;SDS011;63092;43.582;19.528;2023-01-29T10:31:29;35.33;;;17.95;;
73359;SDS011;63092;43.582;19.528;2023-01-29T10:34:00;32.65;;;17.00;;
73359;SDS011;63092;43.582;19.528;2023-01-29T10:38:59;25.00;;;13.20;;
73359;SDS011;63092;43.582;19.528;2023-01-29T10:52:11;36.30;;;19.70;;
73359;SDS011;63092;43.582;19.528;2023-01-29T10:54:45;32.90;;;17.15;;
73359;SDS011;63092;43.582;19.528;2023-01-29T11:02:50;23.42;;;12.80;;
73359;SDS011;63092;43.582;19.528;2023-01-29T11:05:22;24.13;;;11.82;;
73359;SDS011;63092;43.582;19.528;2023-01-29T11:08:02;23.20;;;12.55;;
73359;SDS011;63092;43.582;19.528;2023-01-29T11:10:36;37.35;;;18.90;;
73359;SDS011;63092;43.582;19.528;2023-01-29T11:13:10;44.75;;;22.83;;
73359;SDS011;63092;43.582;19.528;2023-01-29T11:15:39;20.35;;;11.70;;
73359;SDS011;63092;43.582;19.528;2023-01-29T11:18:09;22.98;;;14.18;;
73359;SDS011;63092;43.582;19.528;2023-01-29T11:20:40;29.92;;;18.25;;
73359;SDS011;63092;43.582;19.528;2023-01-29T11:23:26;21.55;;;11.68;;
73359;SDS011;63092;43.582;19.528;2023-01-29T11:25:55;25.92;;;14.00;;
73359;SDS011;63092;43.582;19.528;2023-01-29T11:28:38;25.15;;;15.13;;
73359;SDS011;63092;43.582;19.528;2023-01-29T11:31:24;22.58;;;11.68;;
73359;SDS011;63092;43.582;19.528;2023-01-29T11:34:00;21.45;;;11.93;;
73359;SDS011;63092;43.582;19.528;2023-01-29T11:36:33;25.10;;;14.07;;
73359;SDS011;63092;43.582;19.528;2023-01-29T11:39:19;24.00;;;13.73;;
73359;SDS011;63092;43.582;19.528;2023-01-29T11:41:51;29.20;;;16.55;;
73359;SDS011;63092;43.582;19.528;2023-01-29T11:44:29;23.67;;;13.20;;
73359;SDS011;63092;43.582;19.528;2023-01-29T11:49:47;26.52;;;13.55;;
73359;SDS011;63092;43.582;19.528;2023-01-29T11:52:15;24.35;;;13.60;;
73359;SDS011;63092;43.582;19.528;2023-01-29T11:54:51;23.38;;;12.60;;
73359;SDS011;63092;43.582;19.528;2023-01-29T12:00:22;18.00;;;10.30;;
73359;SDS011;63092;43.582;19.528;2023-01-29T12:02:56;18.27;;;8.45;;
73359;SDS011;63092;43.582;19.528;2023-01-29T12:05:31;22.05;;;11.52;;
73359;SDS011;63092;43.582;19.528;2023-01-29T12:07:58;21.05;;;11.88;;
73359;SDS011;63092;43.582;19.528;2023-01-29T12:15:45;28.85;;;16.00;;
73359;SDS011;63092;43.582;19.528;2023-01-29T12:20:57;80.07;;;33.70;;
73359;SDS011;63092;43.582;19.528;2023-01-29T12:28:32;38.30;;;20.10;;
73359;SDS011;63092;43.582;19.528;2023-01-29T12:34:04;59.10;;;26.45;;
73359;SDS011;63092;43.582;19.528;2023-01-29T12:36:50;37.72;;;20.02;;
73359;SDS011;63092;43.582;19.528;2023-01-29T12:39:20;45.92;;;21.92;;
73359;SDS011;63092;43.582;19.528;2023-01-29T12:44:18;44.47;;;23.13;;
73359;SDS011;63092;43.582;19.528;2023-01-29T12:46:49;54.67;;;26.30;;
73359;SDS011;63092;43.582;19.528;2023-01-29T12:49:21;36.83;;;20.45;;
73359;SDS011;63092;43.582;19.528;2023-01-29T12:51:52;44.55;;;21.25;;
73359;SDS011;63092;43.582;19.528;2023-01-29T12:54:38;65.25;;;26.20;;
73359;SDS011;63092;43.582;19.528;2023-01-29T12:57:55;42.90;;;20.05;;
73359;SDS011;63092;43.582;19.528;2023-01-29T13:00:14;39.45;;;18.65;;
73359;SDS011;63092;43.582;19.528;2023-01-29T13:02:55;71.50;;;29.17;;
73359;SDS011;63092;43.582;19.528;2023-01-29T13:05:53;39.25;;;20.83;;
73359;SDS011;63092;43.582;19.528;2023-01-29T13:08:24;64.70;;;26.30;;
73359;SDS011;63092;43.582;19.528;2023-01-29T13:10:53;158.30;;;74.97;;
73359;SDS011;63092;43.582;19.528;2023-01-29T13:16:02;56.58;;;27.30;;
73359;SDS011;63092;43.582;19.528;2023-01-29T13:21:05;30.52;;;18.23;;
73359;SDS011;63092;43.582;19.528;2023-01-29T13:23:36;33.25;;;18.70;;
73359;SDS011;63092;43.582;19.528;2023-01-29T13:26:05;32.28;;;18.08;;
73359;SDS011;63092;43.582;19.528;2023-01-29T13:28:32;31.23;;;16.08;;
73359;SDS011;63092;43.582;19.528;2023-01-29T13:33:51;36.92;;;17.67;;
73359;SDS011;63092;43.582;19.528;2023-01-29T13:36:41;41.55;;;21.80;;
73359;SDS011;63092;43.582;19.528;2023-01-29T13:39:18;44.90;;;21.63;;
73359;SDS011;63092;43.582;19.528;2023-01-29T13:41:47;40.33;;;20.08;;
73359;SDS011;63092;43.582;19.528;2023-01-29T13:44:34;22.25;;;12.85;;
73359;SDS011;63092;43.582;19.528;2023-01-29T13:47:02;30.88;;;16.83;;
73359;SDS011;63092;43.582;19.528;2023-01-29T13:49:42;50.58;;;24.17;;
73359;SDS011;63092;43.582;19.528;2023-01-29T13:55:02;35.58;;;21.48;;
73359;SDS011;63092;43.582;19.528;2023-01-29T14:00:04;35.28;;;17.75;;
73359;SDS011;63092;43.582;19.528;2023-01-29T14:02:30;29.65;;;15.35;;
73359;SDS011;63092;43.582;19.528;2023-01-29T14:07:56;29.80;;;15.65;;
73359;SDS011;63092;43.582;19.528;2023-01-29T14:10:31;35.17;;;17.90;;
73359;SDS011;63092;43.582;19.528;2023-01-29T14:15:42;33.03;;;18.02;;
73359;SDS011;63092;43.582;19.528;2023-01-29T14:18:20;36.80;;;18.38;;
73359;SDS011;63092;43.582;19.528;2023-01-29T14:20:50;34.63;;;18.98;;
73359;SDS011;63092;43.582;19.528;2023-01-29T14:23:26;48.47;;;23.77;;
73359;SDS011;63092;43.582;19.528;2023-01-29T14:25:58;37.15;;;20.83;;
73359;SDS011;63092;43.582;19.528;2023-01-29T14:28:25;49.55;;;27.13;;
73359;SDS011;63092;43.582;19.528;2023-01-29T14:30:53;33.63;;;18.48;;
73359;SDS011;63092;43.582;19.528;2023-01-29T14:33:35;30.92;;;16.27;;
73359;SDS011;63092;43.582;19.528;2023-01-29T14:36:09;45.10;;;23.45;;
73359;SDS011;63092;43.582;19.528;2023-01-29T14:38:37;51.15;;;25.25;;
73359;SDS011;63092;43.582;19.528;2023-01-29T14:41:06;44.83;;;22.45;;
73359;SDS011;63092;43.582;19.528;2023-01-29T14:43:39;41.75;;;23.10;;
73359;SDS011;63092;43.582;19.528;2023-01-29T14:48:59;63.13;;;34.45;;
73359;SDS011;63092;43.582;19.528;2023-01-29T14:51:25;51.92;;;30.08;;
73359;SDS011;63092;43.582;19.528;2023-01-29T14:56:34;34.28;;;18.85;;
73359;SDS011;63092;43.582;19.528;2023-01-29T14:59:15;48.78;;;26.88;;
73359;SDS011;63092;43.582;19.528;2023-01-29T15:02:04;51.47;;;26.60;;
73359;SDS011;63092;43.582;19.528;2023-01-29T15:04:41;122.40;;;51.08;;
73359;SDS011;63092;43.582;19.528;2023-01-29T15:07:17;72.40;;;37.15;;
73359;SDS011;63092;43.582;19.528;2023-01-29T15:10:05;80.28;;;36.85;;
73359;SDS011;63092;43.582;19.528;2023-01-29T15:16:24;62.00;;;33.72;;
73359;SDS011;63092;43.582;19.528;2023-01-29T15:18:44;59.17;;;35.00;;
73359;SDS011;63092;43.582;19.528;2023-01-29T15:21:16;335.23;;;107.65;;
73359;SDS011;63092;43.582;19.528;2023-01-29T15:23:43;91.70;;;44.65;;
73359;SDS011;63092;43.582;19.528;2023-01-29T15:26:21;68.33;;;35.97;;
73359;SDS011;63092;43.582;19.528;2023-01-29T15:28:58;88.70;;;37.92;;
73359;SDS011;63092;43.582;19.528;2023-01-29T15:31:25;103.85;;;44.03;;
73359;SDS011;63092;43.582;19.528;2023-01-29T15:33:52;109.07;;;48.65;;
73359;SDS011;63092;43.582;19.528;2023-01-29T15:36:24;118.90;;;49.83;;
73359;SDS011;63092;43.582;19.528;2023-01-29T15:41:39;40.78;;;19.38;;
73359;SDS011;63092;43.582;19.528;2023-01-29T15:44:12;27.02;;;14.30;;
73359;SDS011;63092;43.582;19.528;2023-01-29T15:46:40;39.42;;;19.92;;
73359;SDS011;63092;43.582;19.528;2023-01-29T15:49:38;47.58;;;24.55;;
73359;SDS011;63092;43.582;19.528;2023-01-29T15:52:06;86.82;;;39.70;;
73359;SDS011;63092;43.582;19.528;2023-01-29T15:54:40;82.60;;;42.08;;
73359;SDS011;63092;43.582;19.528;2023-01-29T15:57:11;83.93;;;42.78;;
73359;SDS011;63092;43.582;19.528;2023-01-29T15:59:59;103.32;;;48.05;;
73359;SDS011;63092;43.582;19.528;2023-01-29T16:05:05;54.30;;;30.15;;
73359;SDS011;63092;43.582;19.528;2023-01-29T16:07:37;66.28;;;33.60;;
73359;SDS011;63092;43.582;19.528;2023-01-29T16:10:05;56.45;;;30.50;;
73359;SDS011;63092;43.582;19.528;2023-01-29T16:12:37;75.45;;;35.75;;
73359;SDS011;63092;43.582;19.528;2023-01-29T16:15:03;63.55;;;33.80;;
73359;SDS011;63092;43.582;19.528;2023-01-29T16:17:31;110.63;;;51.25;;
73359;SDS011;63092;43.582;19.528;2023-01-29T16:20:03;86.15;;;43.35;;
73359;SDS011;63092;43.582;19.528;2023-01-29T16:22:34;71.20;;;36.80;;
73359;SDS011;63092;43.582;19.528;2023-01-29T16:25:03;85.55;;;40.40;;
73359;SDS011;63092;43.582;19.528;2023-01-29T16:27:30;85.13;;;42.28;;
73359;SDS011;63092;43.582;19.528;2023-01-29T16:29:57;88.85;;;42.78;;
73359;SDS011;63092;43.582;19.528;2023-01-29T16:32:26;63.10;;;32.75;;
73359;SDS011;63092;43.582;19.528;2023-01-29T16:34:55;62.25;;;31.52;;
73359;SDS011;63092;43.582;19.528;2023-01-29T16:39:48;64.45;;;31.10;;
73359;SDS011;63092;43.582;19.528;2023-01-29T16:44:45;43.78;;;22.83;;
73359;SDS011;63092;43.582;19.528;2023-01-29T16:47:30;31.40;;;15.18;;
73359;SDS011;63092;43.582;19.528;2023-01-29T16:52:55;35.05;;;17.17;;
73359;SDS011;63092;43.582;19.528;2023-01-29T16:55:42;44.60;;;21.70;;
73359;SDS011;63092;43.582;19.528;2023-01-29T16:58:18;42.30;;;19.73;;
73359;SDS011;63092;43.582;19.528;2023-01-29T17:00:47;46.13;;;22.20;;
73359;SDS011;63092;43.582;19.528;2023-01-29T17:03:16;68.43;;;30.10;;
73359;SDS011;63092;43.582;19.528;2023-01-29T17:05:43;65.25;;;29.77;;
73359;SDS011;63092;43.582;19.528;2023-01-29T17:08:17;80.68;;;38.03;;
73359;SDS011;63092;43.582;19.528;2023-01-29T17:13:19;81.88;;;38.33;;
73359;SDS011;63092;43.582;19.528;2023-01-29T17:15:58;28.70;;;15.30;;
73359;SDS011;63092;43.582;19.528;2023-01-29T17:18:26;57.78;;;26.88;;
73359;SDS011;63092;43.582;19.528;2023-01-29T17:20:53;69.25;;;32.88;;
73359;SDS011;63092;43.582;19.528;2023-01-29T17:23:19;56.80;;;31.27;;
73359;SDS011;63092;43.582;19.528;2023-01-29T17:25:45;112.05;;;52.00;;